Flight Track Log - Related Links

Times and Time Zones

All times are in EDT time to prevent confusion due to time zone crossing. See the AWI3778 flight status page for this flight to view local times or setup timezone preferences in your user account.

Time Position Orientation Groundspeed Altitude Reporting Facility
EDT Latitude Longitude Course Direction KTS MPH feet Rate Location/Type
Sun 01:35:55 PM 44.2742 -73.0867 170° South 261 300 7,800  Level Boston Center
Sun 01:37:04 PM 44.1972 -73.0683 170° South 280 322 9,900 1,209 Climbing Boston Center
Sun 01:38:04 PM 44.0908 -73.0761 183° South 296 341 10,400 1,488 Climbing Boston Center
Sun 01:39:00 PM 43.7826 -73.4100 195° South  Level FlightAware Approximate
Sun 01:39:05 PM 44.0217 -73.1417 214° Southwest 290 334 12,900  Level Boston Center
Sun 01:40:00 PM 43.6846 -73.4462 195° South  Level FlightAware Approximate
Sun 01:40:06 PM 43.9525 -73.2131 217° Southwest 303 349 14,800  Level Boston Center
Sun 01:41:07 PM 43.8831 -73.2811 215° Southwest 313 360 16,300 1,525 Climbing Boston Center
Sun 01:42:04 PM 43.8097 -73.3578 217° Southwest 326 375 17,800 1,487 Climbing Boston Center
Sun 01:43:04 PM 43.7361 -73.4286 215° Southwest 326 375 19,200 1,190 Climbing Boston Center
Sun 01:44:05 PM 43.6772 -73.4908 217° Southwest 326 375 20,200 1,190 Climbing Boston Center
Sun 01:45:05 PM 43.5931 -73.5753 216° Southwest 331 381 21,600 1,240 Climbing Boston Center
Sun 01:46:06 PM 43.5194 -73.6483 216° Southwest 336 387 22,700 992 Climbing Boston Center
Sun 01:47:06 PM 43.4436 -73.7269 217° Southwest 336 387 23,600 645 Climbing Boston Center
Sun 01:48:07 PM 43.3550 -73.8106 214° Southwest 341 392 24,000 203 Climbing Boston Center
Sun 01:49:04 PM 43.2789 -73.8889 217° Southwest 346 398 24,000  Level Boston Center
Sun 01:50:05 PM 43.2008 -73.9639 215° Southwest 346 398 24,000  Level Boston Center
Sun 01:51:05 PM 43.1228 -74.0417 216° Southwest 346 398 24,000  Level Boston Center
Sun 01:52:06 PM 43.0467 -74.1164 216° Southwest 346 398 24,000  Level Boston Center
Sun 01:53:06 PM 42.9706 -74.1936 217° Southwest 351 404 24,000  Level Boston Center
Sun 01:54:04 PM 42.8881 -74.2708 214° Southwest 351 404 24,000  Level Boston Center
Sun 01:55:17 PM 42.8136 -74.3478 217° Southwest 351 404 24,000  Level Boston Center
Sun 01:56:17 PM 42.7206 -74.4353 215° Southwest 351 404 24,000  Level Boston Center
Sun 01:57:18 PM 42.6419 -74.5119 216° Southwest 351 404 24,000  Level Boston Center
Sun 01:58:18 PM 42.5636 -74.5881 216° Southwest 351 404 24,000  Level Boston Center
Sun 01:59:18 PM 42.4850 -74.6642 216° Southwest 351 404 24,000  Level Boston Center
Sun 02:00:19 PM 42.4083 -74.7403 216° Southwest 351 404 24,000 -436 Level Boston Center
Sun 02:02:03 PM 42.2667 -74.8733 215° Southwest 346 398 22,800 -898 Descending New York Center
Sun 02:03:06 PM 42.1808 -74.9519 214° Southwest 366 421 21,500 -1,350 Descending New York Center
Sun 02:04:03 PM 42.0947 -75.0275 213° Southwest 372 428 20,100 -1,271 Descending New York Center
Sun 02:05:04 PM 42.0111 -75.1003 213° Southwest 367 422 19,000 -545 Descending New York Center
Sun 02:06:04 PM 41.9317 -75.1619 210° Southwest 355 409 19,000  Level New York Center
Sun 02:07:06 PM 41.8522 -75.2261 211° Southwest 345 397 19,000 -403 Level New York Center
Sun 02:08:03 PM 41.7814 -75.2853 212° Southwest 345 397 18,200 -1,077 Descending New York Center
Sun 02:09:03 PM 41.6997 -75.3494 210° Southwest 351 404 16,900 -1,438 Descending New York Center
Sun 02:10:04 PM 41.6158 -75.4158 211° Southwest 343 395 15,300 -1,537 Descending New York Center
Sun 02:11:04 PM 41.5428 -75.4744 211° Southwest 325 374 13,800 -1,438 Descending New York Center
Sun 02:12:05 PM 41.4675 -75.5356 211° Southwest 315 362 12,400 -893 Descending New York Center
Sun 02:13:05 PM 41.4031 -75.5864 211° Southwest 315 362 12,000 -203 Descending New York Center
Sun 02:14:03 PM 41.3256 -75.6442 209° Southwest 310 357 12,000  Level New York Center
Sun 02:15:04 PM 41.2508 -75.6886 204° Southwest 310 357 12,000 -541 Level New York Center
Sun 02:16:05 PM 41.1519 -75.6622 169° South 312 359 10,900 -992 Descending New York Center
Sun 02:17:05 PM 41.0553 -75.6303 166° South 344 396 10,000 -454 Descending New York Center
Sun 02:18:04 PM 40.9711 -75.6050 167° South 354 407 10,000  Level New York Center
Sun 02:19:04 PM 40.8828 -75.5742 165° South 349 402 10,000  Level New York Center
Sun 02:20:04 PM 40.7839 -75.5425 166° South 342 394 10,000  Level New York Center
Sun 02:21:05 PM 40.6975 -75.5144 166° South 329 379 10,000 -49 Level New York Center
Sun 02:22:06 PM 40.6133 -75.4842 165° South 329 379 9,900 -508 Descending New York Center
Sun 02:23:03 PM 40.5331 -75.4594 167° South 309 356 9,000 -454 Descending New York Center
Sun 02:24:05 PM 40.4550 -75.4325 165° South 299 344 9,000 -439 Level New York Center
Sun 02:25:06 PM 40.3775 -75.3889 157° South 299 344 8,100 -1,017 Descending New York Center
Sun 02:26:03 PM 40.3103 -75.3492 156° South 294 338 7,000 -1,077 Descending New York Center
Sun 02:27:03 PM 40.2389 -75.3089 157° South 288 331 6,000 -439 Descending New York Center
Sun 02:28:06 PM 40.1633 -75.2689 158° South 293 337 6,100 62 Climbing New York Center
Sun 02:28:40 PM 40.1167 -75.2333 150° Southeast 281 323 6,100 -60 Level Philadelphia TRACON
Sun 02:29:46 PM 40.0500 -75.1833 150° Southeast 220 253 6,000 -50 Descending Philadelphia TRACON
Sun 02:30:40 PM 40.0167 -75.1333 131° Southeast 233 268 6,000 -789 Level Philadelphia TRACON
Sun 02:31:40 PM 39.9833 -75.0667 123° Southeast 197 227 4,500 -1,571 Descending Philadelphia TRACON
Sun 02:32:46 PM 39.9500 -75.0833 201° Southwest 178 205 2,700 -1,364 Descending Philadelphia TRACON
Sun 02:33:52 PM 39.9167 -75.1333 229° Southwest 167 192 1,500 -905 Descending Philadelphia TRACON
Sun 02:34:52 PM 39.8833 -75.1833 229° Southwest 139 160 800 -700 Descending Philadelphia TRACON

Login

Don't have an account? Register now (free) for customized features, flight alerts, and more!